Time;durP1;ratioP1;P1;durP2;ratioP2;P2;SDS_P1;SDS_P2;PMS_P1;PMS_P2;Temp;Humidity;BMP_temperature;BMP_pressure;BME280_temperature;BME280_humidity;BME280_pressure;Samples;Min_cycle;Max_cycle;Signal;HPM_P1;HPM_P2
2023/08/18 00:00:07;;;;;;;4.77;2.93;;;;;;;24.72;57.26;94887.56;4970645;28;20410;-76
2023/08/18 00:02:33;;;;;;;4.80;2.90;;;;;;;24.66;57.74;94887.94;4969509;28;20424;-76
2023/08/18 00:04:58;;;;;;;5.47;3.10;;;;;;;24.68;57.92;94899.22;4986287;28;20422;-75
2023/08/18 00:07:24;;;;;;;3.87;2.67;;;;;;;24.66;57.81;94901.41;4972601;28;20421;-76
2023/08/18 00:09:49;;;;;;;6.60;3.10;;;;;;;24.66;57.73;94896.00;4990005;28;20423;-75
2023/08/18 00:12:14;;;;;;;4.45;2.80;;;;;;;24.62;57.80;94886.94;4983233;28;20529;-76
2023/08/18 00:14:40;;;;;;;7.50;3.47;;;;;;;24.71;57.22;94912.91;4975844;28;20429;-76
2023/08/18 00:17:05;;;;;;;3.70;2.80;;;;;;;24.68;57.52;94897.31;4970470;28;20861;-76
2023/08/18 00:19:30;;;;;;;4.77;2.97;;;;;;;24.66;57.42;94886.03;4972274;28;20424;-76
2023/08/18 00:21:56;;;;;;;4.60;2.90;;;;;;;24.69;57.62;94892.75;4979916;28;20445;-76
2023/08/18 00:24:21;;;;;;;5.53;3.30;;;;;;;24.58;57.44;94875.97;4981762;28;20519;-76
2023/08/18 00:26:47;;;;;;;7.93;2.50;;;;;;;24.56;57.85;94898.91;4991132;28;20185;-76
2023/08/18 00:29:12;;;;;;;5.20;2.75;;;;;;;24.45;57.94;94874.06;4989582;28;20412;-76
2023/08/18 00:31:38;;;;;;;6.57;2.97;;;;;;;24.41;58.00;94873.84;4987023;28;20915;-75
2023/08/18 00:34:04;;;;;;;6.03;2.87;;;;;;;24.49;57.83;94882.34;4972330;28;20427;-76
2023/08/18 00:36:30;;;;;;;5.82;3.13;;;;;;;24.28;57.99;94863.88;4989217;28;20415;-76
2023/08/18 00:38:58;;;;;;;6.20;2.95;;;;;;;24.42;58.31;94869.28;4990407;28;20432;-76
2023/08/18 00:41:24;;;;;;;6.55;3.20;;;;;;;24.63;57.36;94869.69;4989806;28;20908;-76
2023/08/18 00:43:49;;;;;;;6.32;2.75;;;;;;;24.67;57.34;94868.78;4989141;28;20423;-76
2023/08/18 00:46:16;;;;;;;6.32;3.38;;;;;;;24.65;57.27;94873.69;4989385;28;20444;-76
2023/08/18 00:48:42;;;;;;;6.70;3.33;;;;;;;24.62;57.57;94878.88;4989254;28;20400;-76
2023/08/18 00:51:09;;;;;;;4.90;2.90;;;;;;;24.65;57.15;94875.59;4990274;28;20416;-76
2023/08/18 00:53:35;;;;;;;4.72;2.80;;;;;;;24.64;57.30;94874.00;4993340;28;20424;-76
2023/08/18 00:56:01;;;;;;;8.00;2.90;;;;;;;24.66;57.31;94872.59;4993342;28;20424;-76
2023/08/18 00:58:27;;;;;;;4.85;3.05;;;;;;;24.60;57.49;94862.22;4993369;28;20522;-76
2023/08/18 01:00:52;;;;;;;4.80;2.90;;;;;;;24.55;58.16;94875.78;4975543;28;20454;-76
2023/08/18 01:03:18;;;;;;;3.73;2.90;;;;;;;24.39;57.80;94853.72;4992885;28;20415;-76
2023/08/18 01:05:44;;;;;;;3.95;2.92;;;;;;;24.52;58.02;94879.84;4992544;28;20928;-76
2023/08/18 01:08:09;;;;;;;6.33;3.33;;;;;;;24.53;57.73;94886.03;4992750;28;21237;-76
2023/08/18 01:10:50;;;;;;;5.55;3.28;;;;;;;24.46;58.20;94881.06;4992824;28;20408;-76
2023/08/18 01:13:36;;;;;;;6.40;3.00;;;;;;;24.50;57.86;94876.66;4992598;28;20412;-76
2023/08/18 01:16:05;;;;;;;6.23;3.10;;;;;;;24.41;58.10;94868.47;4992752;28;20438;-76
2023/08/18 01:18:34;;;;;;;4.35;3.03;;;;;;;24.46;58.05;94882.94;4992455;28;20919;-76
2023/08/18 01:21:02;;;;;;;4.57;3.05;;;;;;;24.35;58.69;94880.44;4993408;28;20412;-76
2023/08/18 01:23:40;;;;;;;7.60;3.40;;;;;;;24.36;58.63;94886.63;4992461;28;20513;-76
2023/08/18 01:26:06;;;;;;;5.88;2.97;;;;;;;24.33;59.15;94890.69;4992223;28;21017;-76
2023/08/18 01:28:33;;;;;;;7.53;3.00;;;;;;;24.32;58.92;94881.00;4992863;28;20404;-76
2023/08/18 01:31:03;;;;;;;4.50;3.20;;;;;;;24.15;59.19;94869.97;4992387;28;20511;-76
2023/08/18 01:33:37;;;;;;;6.97;3.33;;;;;;;24.27;59.29;94883.00;4993755;28;20454;-76
2023/08/18 01:36:11;;;;;;;6.50;3.28;;;;;;;24.13;59.94;94882.16;4993110;28;20423;-76
2023/08/18 01:38:38;;;;;;;11.60;3.53;;;;;;;24.13;59.95;94892.91;4992277;28;20442;-76
2023/08/18 01:41:05;;;;;;;6.15;3.50;;;;;;;24.06;60.20;94894.06;4992466;28;20522;-76
2023/08/18 01:43:32;;;;;;;8.60;3.40;;;;;;;24.00;60.48;94884.50;4992305;28;21213;-76
2023/08/18 01:46:00;;;;;;;7.38;3.15;;;;;;;23.98;60.56;94886.69;4974710;28;20486;-76
2023/08/18 01:48:26;;;;;;;6.95;3.35;;;;;;;23.95;60.74;94889.97;4992426;28;20495;-76
2023/08/18 01:50:51;;;;;;;8.32;3.55;;;;;;;23.98;60.69;94891.25;4992501;28;20507;-76
2023/08/18 01:53:16;;;;;;;8.30;3.50;;;;;;;23.98;60.52;94891.25;4991975;28;20482;-76
2023/08/18 01:55:43;;;;;;;7.10;3.43;;;;;;;23.94;60.85;94891.06;4992428;28;20507;-76
2023/08/18 01:58:08;;;;;;;4.93;3.22;;;;;;;23.82;61.27;94884.53;4990423;28;20435;-76
2023/08/18 02:00:34;;;;;;;7.37;3.10;;;;;;;23.64;61.20;94865.44;4992241;28;20411;-76
2023/08/18 02:02:59;;;;;;;8.87;3.73;;;;;;;23.73;61.45;94889.78;4991031;28;20447;-76
2023/08/18 02:05:25;;;;;;;7.83;3.60;;;;;;;23.57;61.72;94880.34;4993320;28;20423;-76
2023/08/18 02:07:50;;;;;;;8.30;3.90;;;;;;;23.51;62.00;94876.94;4991558;28;20835;-75
2023/08/18 02:10:16;;;;;;;7.03;3.63;;;;;;;23.47;62.19;94865.13;4974956;28;20426;-76
2023/08/18 02:12:41;;;;;;;6.20;3.60;;;;;;;23.51;62.17;94865.38;4992835;28;20419;-76
2023/08/18 02:15:07;;;;;;;8.63;4.23;;;;;;;23.46;62.26;94873.47;4992332;28;20432;-76
2023/08/18 02:17:33;;;;;;;6.80;3.80;;;;;;;23.43;62.01;94853.38;4991324;28;20440;-76
2023/08/18 02:19:58;;;;;;;7.17;3.80;;;;;;;23.60;61.62;94869.81;4991566;28;20423;-76
2023/08/18 02:22:27;;;;;;;7.37;3.60;;;;;;;23.56;61.67;94855.34;4991445;28;20412;-76
2023/08/18 02:24:53;;;;;;;5.28;3.50;;;;;;;23.45;61.77;94840.44;4991855;28;20438;-76
2023/08/18 02:27:18;;;;;;;7.30;3.83;;;;;;;23.56;61.81;94858.03;4992005;28;20415;-76
2023/08/18 02:29:44;;;;;;;5.37;3.47;;;;;;;23.52;61.67;94846.28;4991387;28;20432;-76
2023/08/18 02:32:09;;;;;;;6.47;3.55;;;;;;;23.59;62.09;94865.53;4991691;28;20413;-76
2023/08/18 02:34:35;;;;;;;5.78;3.53;;;;;;;23.56;62.25;94871.47;4990338;28;20491;-76
2023/08/18 02:37:01;;;;;;;6.47;3.95;;;;;;;23.51;62.43;94870.75;4991656;28;20768;-75
2023/08/18 02:39:26;;;;;;;5.13;3.37;;;;;;;23.48;62.57;94874.78;4991737;28;20412;-76
2023/08/18 02:41:52;;;;;;;5.63;3.75;;;;;;;23.35;62.56;94839.81;4991095;28;20416;-76
2023/08/18 02:44:18;;;;;;;8.70;4.10;;;;;;;23.45;62.72;94867.31;4991301;28;20856;-76
2023/08/18 02:46:43;;;;;;;6.50;3.60;;;;;;;23.31;62.90;94851.13;4991114;28;20420;-76
2023/08/18 02:49:08;;;;;;;9.40;3.80;;;;;;;23.23;63.41;94867.09;4990908;28;20499;-76
2023/08/18 02:51:34;;;;;;;6.80;3.53;;;;;;;23.31;63.09;94861.88;4990823;28;20839;-76
2023/08/18 02:53:59;;;;;;;6.88;3.50;;;;;;;23.21;63.22;94863.88;4990879;28;20434;-76
2023/08/18 02:56:26;;;;;;;7.70;3.90;;;;;;;23.24;63.34;94861.44;4988762;28;20419;-76
2023/08/18 02:58:52;;;;;;;6.63;3.95;;;;;;;23.23;63.24;94864.41;4990802;28;20867;-76
2023/08/18 03:01:18;;;;;;;6.73;3.50;;;;;;;23.26;63.06;94861.16;4990399;28;20495;-75
2023/08/18 03:03:43;;;;;;;6.10;3.50;;;;;;;23.30;63.01;94856.78;4990360;28;20420;-76
2023/08/18 03:06:09;;;;;;;5.43;3.67;;;;;;;23.32;62.65;94857.28;4991676;28;20490;-75
2023/08/18 03:08:36;;;;;;;4.27;3.77;;;;;;;23.28;62.67;94862.44;4990716;28;20420;-76
2023/08/18 03:11:02;;;;;;;6.93;3.78;;;;;;;23.38;62.25;94871.44;4990223;28;20496;-76
2023/08/18 03:13:28;;;;;;;5.77;3.77;;;;;;;23.40;62.28;94871.97;4990094;28;21332;-75
2023/08/18 03:15:54;;;;;;;5.57;3.67;;;;;;;23.40;62.20;94869.28;4990869;28;20424;-76
2023/08/18 03:18:19;;;;;;;8.20;3.67;;;;;;;23.40;62.19;94872.75;4990417;28;20442;-76
2023/08/18 03:20:47;;;;;;;6.27;3.90;;;;;;;23.44;62.25;94875.69;4990219;28;20442;-76
2023/08/18 03:23:18;;;;;;;6.27;4.30;;;;;;;23.36;62.35;94860.19;4989371;28;20459;-76
2023/08/18 03:25:44;;;;;;;7.88;3.28;;;;;;;23.44;62.44;94870.31;4983720;28;20564;-76
2023/08/18 03:28:12;;;;;;;3.85;3.22;;;;;;;23.27;63.01;94874.25;4991700;28;20282;-76
2023/08/18 03:30:38;;;;;;;17.20;3.97;;;;;;;23.26;63.16;94872.66;4991436;28;20172;-76
2023/08/18 03:33:04;;;;;;;6.78;3.60;;;;;;;23.17;63.49;94879.00;4990578;28;21221;-76
2023/08/18 03:35:35;;;;;;;3.90;3.40;;;;;;;23.00;64.20;94865.25;4991646;28;20168;-76
2023/08/18 03:38:01;;;;;;;9.60;3.67;;;;;;;23.03;64.22;94883.47;4991434;28;20692;-76
2023/08/18 03:40:27;;;;;;;5.95;3.95;;;;;;;22.92;64.56;94880.09;4989684;28;20958;-76
2023/08/18 03:42:52;;;;;;;7.50;3.70;;;;;;;22.81;65.43;94871.38;4991847;28;20203;-76
2023/08/18 03:45:18;;;;;;;6.63;3.90;;;;;;;22.97;64.67;94882.72;4991765;28;20192;-75
2023/08/18 03:47:44;;;;;;;7.68;3.80;;;;;;;22.80;65.41;94885.88;4989808;28;20416;-75
2023/08/18 03:50:10;;;;;;;4.72;4.00;;;;;;;22.84;65.11;94873.47;4991195;28;20252;-75
2023/08/18 03:52:35;;;;;;;6.20;4.10;;;;;;;22.93;65.33;94884.38;4989900;28;20995;-75
2023/08/18 03:55:00;;;;;;;7.15;3.90;;;;;;;22.96;65.07;94881.13;4989777;28;20419;-76
2023/08/18 03:57:26;;;;;;;8.05;3.97;;;;;;;22.93;65.20;94873.66;4991587;28;20221;-76
2023/08/18 03:59:53;;;;;;;5.85;3.80;;;;;;;22.84;65.80;94875.34;4992088;28;20192;-76
2023/08/18 04:02:18;;;;;;;5.78;3.70;;;;;;;22.84;66.03;94884.22;4989909;28;20181;-75
2023/08/18 04:04:44;;;;;;;5.32;3.35;;;;;;;22.69;66.03;94872.84;4995300;28;20680;-75
2023/08/18 04:07:09;;;;;;;6.82;3.83;;;;;;;22.65;66.23;94869.13;4991084;28;20208;-75
2023/08/18 04:09:34;;;;;;;5.93;4.03;;;;;;;22.73;66.80;94884.63;4991164;28;20208;-75
2023/08/18 04:12:00;;;;;;;4.90;3.95;;;;;;;22.82;66.66;94896.34;4990294;28;20671;-75
2023/08/18 04:14:25;;;;;;;5.63;3.70;;;;;;;23.00;65.80;94895.59;4991015;28;20256;-75
2023/08/18 04:16:51;;;;;;;12.50;4.13;;;;;;;22.98;66.10;94894.28;4991022;28;20189;-74
2023/08/18 04:19:16;;;;;;;4.07;3.67;;;;;;;22.98;66.29;94888.91;4991174;28;20209;-75
2023/08/18 04:21:42;;;;;;;8.15;5.45;;;;;;;23.10;66.04;94894.66;4990855;28;20177;-75
2023/08/18 04:24:07;;;;;;;7.63;4.18;;;;;;;23.23;65.42;94893.94;4990492;28;20177;-75
2023/08/18 04:26:35;;;;;;;7.53;3.78;;;;;;;23.44;64.88;94892.56;4992999;28;20543;-75
2023/08/18 04:29:02;;;;;;;8.85;5.00;;;;;;;23.70;64.11;94901.09;4994631;28;20633;-75
2023/08/18 04:31:27;;;;;;;8.10;3.88;;;;;;;23.95;63.56;94897.25;4994690;28;20676;-76
2023/08/18 04:33:53;;;;;;;8.32;4.10;;;;;;;24.31;62.56;94895.56;4994732;28;20209;-76
2023/08/18 04:36:18;;;;;;;5.93;3.42;;;;;;;24.57;61.47;94893.22;4992959;28;20184;-76
2023/08/18 04:38:44;;;;;;;7.22;3.92;;;;;;;24.91;60.38;94890.16;4994946;28;20276;-77
2023/08/18 04:41:09;;;;;;;6.13;3.50;;;;;;;25.07;59.96;94896.06;4994829;28;20588;-76
2023/08/18 04:43:35;;;;;;;5.13;3.72;;;;;;;25.50;59.07;94902.69;4994667;28;20260;-76
2023/08/18 04:46:00;;;;;;;11.50;3.72;;;;;;;25.68;57.81;94900.97;4993817;28;20181;-76
2023/08/18 04:48:26;;;;;;;9.10;4.03;;;;;;;26.26;56.63;94919.06;4993608;28;20173;-76
2023/08/18 04:50:51;;;;;;;7.75;4.07;;;;;;;26.82;55.96;94912.19;4993030;28;20208;-76
2023/08/18 04:53:16;;;;;;;6.30;3.35;;;;;;;27.23;53.36;94910.00;4993472;28;20208;-76
2023/08/18 04:55:43;;;;;;;5.57;3.70;;;;;;;27.24;53.19;94910.81;4993910;28;20205;-76
2023/08/18 04:58:12;;;;;;;9.75;3.72;;;;;;;27.14;53.54;94908.38;4993832;28;20288;-76
2023/08/18 05:00:41;;;;;;;4.80;3.30;;;;;;;27.61;52.72;94920.28;4993417;28;20175;-76
2023/08/18 05:03:07;;;;;;;7.40;3.60;;;;;;;27.66;51.85;94920.13;4994259;28;20401;-76
2023/08/18 05:05:39;;;;;;;9.50;3.67;;;;;;;27.81;52.06;94922.38;4994334;28;20216;-76
2023/08/18 05:08:04;;;;;;;8.10;3.67;;;;;;;27.89;51.48;94899.13;4994065;28;20209;-76
2023/08/18 05:10:30;;;;;;;5.25;3.88;;;;;;;28.43;50.57;94922.03;4994090;28;20173;-76
2023/08/18 05:12:55;;;;;;;10.93;3.70;;;;;;;28.84;49.33;94925.00;4994189;28;20175;-76
2023/08/18 05:15:22;;;;;;;5.03;3.70;;;;;;;28.95;48.60;94919.22;4994130;28;20177;-76
2023/08/18 05:17:48;;;;;;;7.13;3.05;;;;;;;28.36;50.23;94913.63;4993942;28;20735;-76
2023/08/18 05:20:14;;;;;;;8.48;3.13;;;;;;;28.33;50.85;94925.09;4993837;28;20606;-76
2023/08/18 05:22:40;;;;;;;5.00;3.20;;;;;;;28.62;49.86;94913.56;4993828;28;20177;-76
2023/08/18 05:25:07;;;;;;;6.18;3.78;;;;;;;28.68;49.39;94909.53;4993693;28;20209;-76
2023/08/18 05:27:34;;;;;;;7.13;2.97;;;;;;;28.62;49.61;94918.97;4984675;28;20178;-76
2023/08/18 05:29:59;;;;;;;7.78;3.53;;;;;;;29.38;48.26;94929.88;4985080;28;20233;-76
2023/08/18 05:32:25;;;;;;;7.63;3.58;;;;;;;30.64;45.54;94941.25;4978362;28;20743;-76
2023/08/18 05:34:55;;;;;;;7.35;3.42;;;;;;;31.93;42.80;94929.88;4993750;28;20188;-77
2023/08/18 05:37:21;;;;;;;4.90;3.63;;;;;;;32.73;40.52;94944.28;4982406;28;20296;-77
2023/08/18 05:39:47;;;;;;;5.43;3.60;;;;;;;32.16;41.56;94936.44;4982958;28;20665;-76
2023/08/18 05:42:12;;;;;;;6.25;3.60;;;;;;;32.05;41.23;94940.75;4987759;28;20184;-77
2023/08/18 05:44:37;;;;;;;5.97;3.50;;;;;;;32.27;41.19;94955.78;4991813;28;20188;-77
2023/08/18 05:47:03;;;;;;;4.55;3.45;;;;;;;33.20;39.18;94946.25;4978183;28;20181;-76
2023/08/18 05:49:29;;;;;;;9.60;3.55;;;;;;;32.92;39.53;94929.97;4984643;28;20169;-77
2023/08/18 05:51:54;;;;;;;7.35;3.05;;;;;;;32.98;39.23;94945.72;4981101;28;20681;-76
2023/08/18 05:54:20;;;;;;;5.93;3.05;;;;;;;32.71;39.30;94934.84;4986800;28;20180;-77
2023/08/18 05:56:45;;;;;;;6.85;3.40;;;;;;;32.45;40.41;94941.53;4978437;28;20181;-76
2023/08/18 05:59:11;;;;;;;7.70;3.58;;;;;;;32.02;40.75;94941.41;4988050;28;20710;-76
2023/08/18 06:01:36;;;;;;;5.10;3.50;;;;;;;32.52;41.03;94939.00;4986957;28;20202;-77
2023/08/18 06:04:02;;;;;;;7.93;3.47;;;;;;;32.46;40.38;94929.47;4989255;28;20297;-77
2023/08/18 06:06:27;;;;;;;6.07;3.33;;;;;;;32.57;40.16;94941.47;4986882;28;20556;-77
2023/08/18 06:08:53;;;;;;;17.58;3.38;;;;;;;33.01;40.02;94936.03;4979896;28;20252;-77
2023/08/18 06:11:18;;;;;;;6.72;3.40;;;;;;;33.41;38.78;94943.28;4985752;28;20183;-77
2023/08/18 06:13:43;;;;;;;5.15;3.28;;;;;;;32.97;39.25;94941.41;4982289;28;20623;-76
2023/08/18 06:16:10;;;;;;;9.60;3.55;;;;;;;32.24;40.65;94943.66;4991118;28;20292;-76
2023/08/18 06:18:35;;;;;;;5.20;3.45;;;;;;;33.02;39.37;94943.09;4982174;28;20185;-76
2023/08/18 06:21:01;;;;;;;8.85;3.40;;;;;;;32.80;38.94;94940.94;4982228;28;20216;-77
2023/08/18 06:23:26;;;;;;;5.10;2.97;;;;;;;32.60;40.34;94940.00;4973454;28;20182;-76
2023/08/18 06:25:57;;;;;;;5.50;3.15;;;;;;;32.81;39.47;94942.53;4988465;28;20308;-77
2023/08/18 06:28:24;;;;;;;6.13;3.22;;;;;;;33.42;38.25;94939.41;4992726;28;20170;-77
2023/08/18 06:30:49;;;;;;;7.22;3.15;;;;;;;32.96;39.63;94937.06;4992482;28;20185;-76
2023/08/18 06:33:14;;;;;;;7.82;3.53;;;;;;;33.01;38.80;94951.63;4992688;28;20169;-76
2023/08/18 06:35:40;;;;;;;7.57;3.58;;;;;;;32.89;39.81;94947.03;4992490;28;20531;-74
2023/08/18 06:38:05;;;;;;;8.00;3.60;;;;;;;32.70;39.02;94952.34;4992774;28;20279;-77
2023/08/18 06:40:31;;;;;;;9.48;3.13;;;;;;;32.36;39.75;94946.34;4990654;28;20268;-75
2023/08/18 06:42:56;;;;;;;8.40;3.03;;;;;;;32.11;40.43;94947.53;4992721;28;20232;-75
2023/08/18 06:45:21;;;;;;;5.80;3.20;;;;;;;31.11;42.09;94943.63;4992410;28;20659;-75
2023/08/18 06:47:47;;;;;;;5.25;3.17;;;;;;;30.53;43.39;94944.72;4992493;28;20176;-77
2023/08/18 06:50:12;;;;;;;6.22;3.20;;;;;;;31.01;44.21;94944.84;4991649;28;20314;-77
2023/08/18 06:52:38;;;;;;;13.15;4.00;;;;;;;31.65;42.40;94941.50;4990277;28;20177;-75
2023/08/18 06:55:05;;;;;;;6.13;3.20;;;;;;;31.42;41.38;94938.41;4992044;28;20201;-74
2023/08/18 06:57:30;;;;;;;8.45;3.63;;;;;;;31.55;41.12;94922.88;4990171;28;20591;-75
2023/08/18 06:59:56;;;;;;;6.28;3.22;;;;;;;31.69;42.95;94939.69;4992292;28;20177;-75
2023/08/18 07:02:22;;;;;;;9.02;3.35;;;;;;;31.82;41.45;94926.84;4989815;28;20315;-75
2023/08/18 07:04:47;;;;;;;6.60;3.10;;;;;;;31.51;41.06;94943.75;4992146;28;20575;-75
2023/08/18 07:07:13;;;;;;;4.00;3.05;;;;;;;31.34;40.96;94939.34;4991933;28;20189;-75
2023/08/18 07:09:38;;;;;;;3.80;2.70;;;;;;;30.71;42.20;94932.53;4991761;28;20663;-74
2023/08/18 07:12:04;;;;;;;6.13;3.10;;;;;;;30.93;42.40;94926.69;4991325;28;20166;-74
2023/08/18 07:14:29;;;;;;;6.28;3.20;;;;;;;30.82;42.10;94932.91;4991420;28;20554;-73
2023/08/18 07:16:55;;;;;;;5.45;3.60;;;;;;;30.81;42.86;94929.38;4991433;28;20516;-75
2023/08/18 07:19:21;;;;;;;5.43;3.22;;;;;;;30.53;43.34;94920.28;4991426;28;20212;-77
2023/08/18 07:21:47;;;;;;;11.75;3.15;;;;;;;30.65;43.30;94926.53;4991875;28;20538;-75
2023/08/18 07:24:12;;;;;;;9.93;3.33;;;;;;;30.66;43.46;94919.94;4991351;28;20169;-75
2023/08/18 07:26:37;;;;;;;6.53;3.15;;;;;;;30.84;42.55;94930.63;4991564;28;20175;-75
2023/08/18 07:29:07;;;;;;;12.05;3.63;;;;;;;31.02;42.89;94927.38;4991462;28;20604;-75
2023/08/18 07:31:33;;;;;;;9.38;3.05;;;;;;;31.30;42.49;94916.66;4991476;28;20213;-75
2023/08/18 07:33:58;;;;;;;10.23;3.50;;;;;;;31.72;41.30;94943.66;4990418;28;20264;-77
2023/08/18 07:36:24;;;;;;;8.52;3.50;;;;;;;31.50;40.60;94937.50;4989429;28;20188;-75
2023/08/18 07:38:50;;;;;;;10.05;3.00;;;;;;;31.44;42.25;94927.19;4991117;28;20255;-75
2023/08/18 07:41:15;;;;;;;4.15;3.08;;;;;;;31.44;41.44;94933.44;4991157;28;20169;-77
2023/08/18 07:43:41;;;;;;;4.35;2.70;;;;;;;31.60;40.60;94933.53;4991302;28;20633;-75
2023/08/18 07:46:06;;;;;;;5.15;2.80;;;;;;;31.50;41.12;94928.53;4991507;28;20239;-75
2023/08/18 07:48:32;;;;;;;5.97;2.88;;;;;;;31.12;41.76;94926.19;4991226;28;20169;-75
2023/08/18 07:50:57;;;;;;;5.07;2.63;;;;;;;30.82;42.83;94919.28;4973919;28;20169;-75
2023/08/18 07:53:22;;;;;;;4.65;2.53;;;;;;;30.97;41.34;94914.00;4992809;28;20256;-75
2023/08/18 07:55:49;;;;;;;4.55;3.53;;;;;;;30.90;41.91;94935.50;4990227;28;20212;-74
2023/08/18 07:58:15;;;;;;;4.97;3.20;;;;;;;30.72;42.59;94940.34;4990925;28;20197;-75
2023/08/18 08:00:41;;;;;;;5.28;2.42;;;;;;;30.34;42.18;94920.75;4989313;28;20689;-75
2023/08/18 08:03:07;;;;;;;5.65;2.97;;;;;;;30.40;42.77;94932.97;4994270;28;20239;-74
2023/08/18 08:05:32;;;;;;;6.68;2.83;;;;;;;30.42;42.57;94919.06;4994267;28;20180;-75
2023/08/18 08:07:58;;;;;;;3.38;3.08;;;;;;;30.62;42.05;94926.38;4993934;28;20169;-75
2023/08/18 08:10:26;;;;;;;5.55;2.75;;;;;;;30.80;42.19;94929.72;4993281;28;20181;-75
2023/08/18 08:12:52;;;;;;;8.63;2.95;;;;;;;30.79;40.90;94925.44;4990486;28;20244;-76
2023/08/18 08:15:17;;;;;;;7.13;3.28;;;;;;;30.78;40.35;94924.63;4991661;28;20173;-76
2023/08/18 08:17:43;;;;;;;11.25;3.47;;;;;;;30.76;40.70;94913.28;4989728;28;20274;-76
2023/08/18 08:20:16;;;;;;;4.85;2.50;;;;;;;31.08;40.65;94908.94;4994694;28;20180;-77
2023/08/18 08:22:48;;;;;;;7.35;2.85;;;;;;;31.04;40.05;94908.81;4991776;28;20223;-76
2023/08/18 08:25:14;;;;;;;9.23;3.03;;;;;;;31.13;40.16;94889.69;4990397;28;20232;-76
2023/08/18 08:27:39;;;;;;;4.18;3.10;;;;;;;31.68;40.18;94905.41;4981936;28;20174;-76
2023/08/18 08:30:10;;;;;;;3.63;2.50;;;;;;;32.17;38.64;94905.31;4994048;28;20177;-76
2023/08/18 08:32:36;;;;;;;5.15;2.67;;;;;;;32.38;37.70;94910.56;4995079;28;20614;-76
2023/08/18 08:35:02;;;;;;;5.35;2.80;;;;;;;32.35;37.30;94927.59;4994669;28;20201;-76
2023/08/18 08:37:28;;;;;;;3.40;2.03;;;;;;;32.12;37.25;94914.50;4992364;28;20201;-76
2023/08/18 08:39:53;;;;;;;4.07;3.10;;;;;;;31.55;38.12;94914.72;4992243;28;20243;-76
2023/08/18 08:42:23;;;;;;;9.30;2.58;;;;;;;31.59;38.42;94912.09;4992197;28;20180;-76
2023/08/18 08:44:48;;;;;;;8.70;2.60;;;;;;;31.46;38.78;94895.00;4994792;28;20242;-76
2023/08/18 08:47:14;;;;;;;3.53;2.55;;;;;;;31.41;38.93;94901.44;4994157;28;20181;-76
2023/08/18 08:49:43;;;;;;;4.30;2.60;;;;;;;31.30;37.62;94916.66;4992833;28;20181;-76
2023/08/18 08:52:10;;;;;;;3.33;2.53;;;;;;;31.11;37.28;94908.25;4992361;28;20191;-78
2023/08/18 08:54:43;;;;;;;2.45;2.08;;;;;;;31.29;37.03;94903.41;4991972;28;20176;-78
2023/08/18 08:57:09;;;;;;;4.90;2.35;;;;;;;31.16;36.33;94894.44;4990536;28;20617;-78
2023/08/18 08:59:36;;;;;;;8.05;2.72;;;;;;;31.17;37.15;94904.19;4990024;28;20220;-78
2023/08/18 09:02:02;;;;;;;4.38;2.25;;;;;;;31.17;38.20;94906.91;4987523;28;20192;-78
2023/08/18 09:04:27;;;;;;;5.70;2.25;;;;;;;31.19;36.81;94909.28;4990491;28;20177;-78
2023/08/18 09:06:53;;;;;;;3.17;2.22;;;;;;;31.09;36.96;94905.88;4989108;28;20200;-77
2023/08/18 09:09:18;;;;;;;3.60;2.35;;;;;;;30.60;36.91;94905.00;4989660;28;20170;-77
2023/08/18 09:11:47;;;;;;;3.47;2.13;;;;;;;30.52;38.06;94894.22;4973384;28;20165;-77
2023/08/18 09:14:14;;;;;;;3.25;2.33;;;;;;;30.52;37.33;94899.66;4989440;28;20192;-77
2023/08/18 09:16:41;;;;;;;6.65;2.25;;;;;;;30.77;37.31;94884.97;4974301;28;20185;-78
2023/08/18 09:19:11;;;;;;;8.23;2.47;;;;;;;31.15;37.42;94889.31;4990703;28;20208;-77
2023/08/18 09:21:36;;;;;;;4.43;2.05;;;;;;;31.19;36.38;94879.34;4989360;28;20204;-77
2023/08/18 09:24:02;;;;;;;3.50;2.30;;;;;;;31.48;37.28;94888.03;4992508;28;20165;-78
2023/08/18 09:26:27;;;;;;;4.95;2.20;;;;;;;31.53;35.93;94895.19;4992820;28;20177;-77
2023/08/18 09:28:53;;;;;;;6.35;2.25;;;;;;;31.28;35.93;94894.44;4992775;28;20552;-77
2023/08/18 09:31:21;;;;;;;2.28;1.92;;;;;;;31.32;35.68;94898.03;4993843;28;20177;-77
2023/08/18 09:33:47;;;;;;;6.63;2.60;;;;;;;31.30;36.09;94904.97;4993761;28;20228;-77
2023/08/18 09:36:13;;;;;;;4.72;2.10;;;;;;;31.22;36.70;94903.97;4993875;28;20173;-77
2023/08/18 09:38:42;;;;;;;8.88;2.70;;;;;;;31.13;36.66;94857.03;4989478;28;20252;-78
2023/08/18 09:41:08;;;;;;;3.28;2.47;;;;;;;31.45;36.10;94893.41;4993040;28;20205;-77
2023/08/18 09:43:34;;;;;;;6.55;2.42;;;;;;;31.20;37.50;94891.81;4985896;28;20265;-77
2023/08/18 09:46:03;;;;;;;2.65;2.30;;;;;;;31.24;37.07;94893.50;4989934;28;20213;-77
2023/08/18 09:48:34;;;;;;;5.13;2.22;;;;;;;31.41;37.17;94892.47;4989691;28;20348;-77
2023/08/18 09:51:00;;;;;;;9.50;3.05;;;;;;;31.21;37.16;94867.00;4987385;28;20260;-77
2023/08/18 09:53:32;;;;;;;9.20;3.47;;;;;;;31.40;37.49;94890.91;4989266;28;20177;-77
2023/08/18 09:56:07;;;;;;;4.45;2.25;;;;;;;31.46;37.66;94893.06;4989539;28;20199;-77
2023/08/18 09:58:39;;;;;;;5.63;2.47;;;;;;;31.11;37.57;94887.28;4990226;28;20204;-76
2023/08/18 10:01:06;;;;;;;3.20;2.38;;;;;;;31.01;37.99;94871.41;4992007;28;20179;-77
2023/08/18 10:03:36;;;;;;;6.85;2.08;;;;;;;30.80;38.11;94881.56;4989761;28;20264;-76
2023/08/18 10:06:03;;;;;;;5.00;2.10;;;;;;;30.85;37.93;94875.91;4989417;28;20235;-76
2023/08/18 10:08:31;;;;;;;7.82;3.33;;;;;;;30.51;38.38;94873.56;4990306;28;20177;-76
2023/08/18 10:10:56;;;;;;;5.55;2.45;;;;;;;30.46;38.89;94887.34;4992388;28;20641;-77
2023/08/18 10:13:23;;;;;;;3.38;2.53;;;;;;;30.39;39.00;94875.13;4991609;28;20181;-77
2023/08/18 10:15:49;;;;;;;3.45;2.58;;;;;;;30.35;38.93;94876.13;4990635;28;20180;-76
2023/08/18 10:18:16;;;;;;;3.47;2.50;;;;;;;30.47;39.06;94875.34;4991891;28;20247;-76
2023/08/18 10:20:49;;;;;;;7.45;2.15;;;;;;;30.54;38.79;94851.16;4991017;28;20194;-77
2023/08/18 10:23:16;;;;;;;3.90;2.00;;;;;;;30.71;38.50;94862.63;4990978;28;20600;-77
2023/08/18 10:25:43;;;;;;;4.47;2.40;;;;;;;30.71;38.12;94883.59;4991241;28;20216;-76
2023/08/18 10:28:13;;;;;;;6.57;2.45;;;;;;;30.84;38.73;94882.50;4990907;28;20165;-77
2023/08/18 10:30:38;;;;;;;3.72;2.47;;;;;;;30.76;38.90;94875.22;4991845;28;20653;-77
2023/08/18 10:33:07;;;;;;;4.30;2.15;;;;;;;30.83;38.08;94880.09;4992055;28;20264;-77
2023/08/18 10:35:38;;;;;;;3.33;2.22;;;;;;;30.79;37.63;94874.53;4992060;28;20184;-77
2023/08/18 10:38:05;;;;;;;7.95;2.25;;;;;;;30.63;38.06;94868.16;4991078;28;20630;-77
2023/08/18 10:40:37;;;;;;;2.92;2.20;;;;;;;30.71;38.47;94878.94;4991893;28;20204;-76
2023/08/18 10:43:04;;;;;;;9.30;2.63;;;;;;;30.57;39.20;94889.34;4989800;28;20177;-78
2023/08/18 10:45:30;;;;;;;5.20;2.50;;;;;;;30.46;39.09;94876.47;4990661;28;20200;-78
2023/08/18 10:48:01;;;;;;;3.65;2.38;;;;;;;30.26;39.64;94881.66;4991880;28;20235;-78
2023/08/18 10:50:29;;;;;;;9.85;2.60;;;;;;;30.25;39.08;94868.41;4973330;28;20169;-78
2023/08/18 10:53:01;;;;;;;3.40;2.20;;;;;;;30.36;39.65;94870.34;4987547;28;20188;-78
2023/08/18 10:55:28;;;;;;;3.17;2.38;;;;;;;30.44;39.15;94862.47;4973211;28;20204;-78
2023/08/18 10:57:53;;;;;;;4.80;2.35;;;;;;;30.70;39.17;94857.56;4989325;28;20320;-78
2023/08/18 11:00:20;;;;;;;3.40;2.55;;;;;;;30.83;38.17;94858.34;4986659;28;20660;-78
2023/08/18 11:02:49;;;;;;;2.78;2.40;;;;;;;30.99;38.26;94862.78;4988465;28;20264;-78
2023/08/18 11:05:20;;;;;;;5.60;2.45;;;;;;;31.00;38.13;94863.56;4990093;28;20179;-78
2023/08/18 11:07:46;;;;;;;3.53;2.22;;;;;;;30.92;38.17;94867.19;4989396;28;20209;-78
2023/08/18 11:10:22;;;;;;;6.25;3.08;;;;;;;30.86;38.59;94847.59;4990790;28;20180;-79
2023/08/18 11:12:49;;;;;;;4.85;2.50;;;;;;;30.75;39.14;94849.97;4984229;28;20169;-78
2023/08/18 11:15:16;;;;;;;3.42;2.70;;;;;;;30.74;38.73;94851.09;4988203;28;20180;-78
2023/08/18 11:17:43;;;;;;;5.45;2.67;;;;;;;30.91;39.07;94857.44;4991032;28;20240;-80
2023/08/18 11:20:11;;;;;;;6.43;2.53;;;;;;;31.02;38.64;94869.47;4991730;28;20239;-77
2023/08/18 11:22:38;;;;;;;8.85;2.92;;;;;;;31.20;38.60;94859.19;4991013;28;20212;-77
2023/08/18 11:25:04;;;;;;;4.28;2.58;;;;;;;31.39;37.83;94859.41;4988027;28;20639;-77
2023/08/18 11:27:32;;;;;;;8.30;2.67;;;;;;;31.37;37.56;94843.41;4978875;28;20184;-78
2023/08/18 11:29:58;;;;;;;4.22;2.70;;;;;;;31.43;36.95;94855.63;4978955;28;20235;-77